Time;durP1;ratioP1;P1;durP2;ratioP2;P2;SDS_P1;SDS_P2;PMS_P1;PMS_P2;Temp;Humidity;BMP_temperature;BMP_pressure;BME280_temperature;BME280_humidity;BME280_pressure;Samples;Min_cycle;Max_cycle;Signal;HPM_P1;HPM_P2
2022/03/31 00:00:22;;;;;;;10.65;4.90;;;;;;;-145.13;100.00;63600.38;5139110;27;20190;-66
2022/03/31 00:02:49;;;;;;;12.13;4.95;;;;;;;-145.13;100.00;63600.38;5138671;27;20202;-66
2022/03/31 00:05:18;;;;;;;11.30;5.43;;;;;;;-145.13;100.00;63600.38;5138944;27;20209;-66
2022/03/31 00:07:49;;;;;;;13.80;5.45;;;;;;;-145.13;100.00;63600.38;5138329;27;20237;-66
2022/03/31 00:10:21;;;;;;;13.05;5.55;;;;;;;-145.13;100.00;63600.38;5156863;27;20178;-66
2022/03/31 00:12:48;;;;;;;11.38;5.68;;;;;;;-145.13;100.00;63600.38;5156811;27;20202;-66
2022/03/31 00:15:15;;;;;;;10.02;4.82;;;;;;;-145.13;100.00;63600.38;5138165;27;20200;-66
2022/03/31 00:17:43;;;;;;;11.82;5.20;;;;;;;-145.13;100.00;63600.38;5156362;27;20251;-66
2022/03/31 00:33:38;;;;;;;12.63;6.47;;;;;;;-145.13;100.00;63600.38;5156336;27;20195;-66
2022/03/31 00:36:05;;;;;;;9.60;4.88;;;;;;;-145.13;100.00;63600.38;5141139;27;20254;-66
2022/03/31 00:38:32;;;;;;;12.90;5.43;;;;;;;-145.13;100.00;63600.38;5160391;27;20247;-66
2022/03/31 00:40:59;;;;;;;12.85;4.80;;;;;;;-145.13;100.00;63600.38;5160143;27;20182;-66
2022/03/31 00:43:26;;;;;;;18.17;5.10;;;;;;;-145.13;100.00;63600.38;5141900;27;20194;-66
2022/03/31 00:45:56;;;;;;;12.82;4.63;;;;;;;-145.13;100.00;63600.38;5141718;27;20202;-66
2022/03/31 00:48:24;;;;;;;13.27;6.15;;;;;;;-145.13;100.00;63600.38;5142213;27;20224;-66
2022/03/31 00:50:53;;;;;;;10.68;4.68;;;;;;;-145.13;100.00;63600.38;5142122;27;20244;-66
2022/03/31 00:53:20;;;;;;;13.38;4.28;;;;;;;-145.13;100.00;63600.38;5141569;27;20202;-66
2022/03/31 00:55:47;;;;;;;16.17;5.28;;;;;;;-145.13;100.00;63600.38;5160015;27;20569;-66
2022/03/31 00:58:16;;;;;;;16.92;5.18;;;;;;;-145.13;100.00;63600.38;5141549;27;20186;-66
2022/03/31 01:00:43;;;;;;;13.80;5.43;;;;;;;-145.13;100.00;63600.38;5142460;27;20194;-66
2022/03/31 01:03:10;;;;;;;15.10;5.40;;;;;;;-145.13;100.00;63600.38;5160112;27;20179;-66
2022/03/31 01:05:39;;;;;;;10.40;4.28;;;;;;;-145.13;100.00;63600.38;5159573;27;20265;-66
2022/03/31 01:08:08;;;;;;;15.65;5.50;;;;;;;-145.13;100.00;63600.38;5141272;27;20233;-66
2022/03/31 01:10:35;;;;;;;13.38;4.95;;;;;;;-145.13;100.00;63600.38;5141527;27;20617;-66
2022/03/31 01:13:05;;;;;;;16.73;5.50;;;;;;;-145.13;100.00;63600.38;5159817;27;20209;-66
2022/03/31 01:15:33;;;;;;;14.38;4.70;;;;;;;-145.13;100.00;63600.38;5159700;27;20186;-66
2022/03/31 01:18:00;;;;;;;15.77;4.63;;;;;;;-145.13;100.00;63600.38;5159347;27;20175;-66
2022/03/31 01:20:27;;;;;;;10.55;4.50;;;;;;;-145.13;100.00;63600.38;5141914;27;20209;-66
2022/03/31 01:22:54;;;;;;;9.90;4.70;;;;;;;-145.13;100.00;63600.38;5141159;27;20206;-66
2022/03/31 01:25:22;;;;;;;13.73;5.03;;;;;;;-145.13;100.00;63600.38;5141430;27;20194;-66
2022/03/31 01:27:50;;;;;;;16.60;5.35;;;;;;;-145.13;100.00;63600.38;5159043;27;20214;-66
2022/03/31 01:30:18;;;;;;;12.73;4.47;;;;;;;-145.13;100.00;63600.38;5141216;27;20206;-66
2022/03/31 01:32:46;;;;;;;13.35;4.63;;;;;;;-145.13;100.00;63600.38;5159319;27;20228;-66
2022/03/31 01:35:14;;;;;;;12.27;4.95;;;;;;;-145.13;100.00;63600.38;5141338;27;20209;-66
2022/03/31 01:37:41;;;;;;;10.60;4.22;;;;;;;-145.13;100.00;63600.38;5159160;27;20183;-66
2022/03/31 01:40:09;;;;;;;11.93;4.68;;;;;;;-145.13;100.00;63600.38;5140765;27;20194;-66
2022/03/31 01:42:39;;;;;;;11.95;4.53;;;;;;;-145.13;100.00;63600.38;5158935;27;20182;-66
2022/03/31 01:45:08;;;;;;;12.27;4.40;;;;;;;-145.13;100.00;63600.38;5159092;27;20231;-66
2022/03/31 01:47:35;;;;;;;13.07;4.75;;;;;;;-145.13;100.00;63600.38;5158417;27;20239;-65
2022/03/31 01:50:03;;;;;;;12.68;5.07;;;;;;;-145.13;100.00;63600.38;5159275;27;20182;-66
2022/03/31 01:52:31;;;;;;;13.80;5.93;;;;;;;-145.13;100.00;63600.38;5140621;27;20186;-65
2022/03/31 01:54:58;;;;;;;13.73;5.05;;;;;;;-145.13;100.00;63600.38;5140720;27;20194;-65
2022/03/31 01:57:25;;;;;;;11.13;4.60;;;;;;;-145.13;100.00;63600.38;5158996;27;20215;-66
2022/03/31 01:59:54;;;;;;;14.60;5.22;;;;;;;-145.13;100.00;63600.38;5158444;27;20182;-66
2022/03/31 02:02:22;;;;;;;12.50;5.38;;;;;;;-145.13;100.00;63600.38;5158825;27;20186;-66
2022/03/31 02:04:49;;;;;;;11.70;5.13;;;;;;;-145.13;100.00;63600.38;5140579;27;20285;-66
2022/03/31 02:07:17;;;;;;;10.35;5.18;;;;;;;-145.13;100.00;63600.38;5158396;27;20186;-66
2022/03/31 02:09:44;;;;;;;15.38;6.07;;;;;;;-145.13;100.00;63600.38;5158031;27;20231;-66
2022/03/31 02:12:11;;;;;;;14.98;6.72;;;;;;;-145.13;100.00;63600.38;5141103;27;20190;-66
2022/03/31 02:14:40;;;;;;;16.05;6.63;;;;;;;-145.13;100.00;63600.38;5158551;27;20254;-66
2022/03/31 02:17:11;;;;;;;18.25;6.97;;;;;;;-145.13;100.00;63600.38;5158512;27;20182;-66
2022/03/31 02:19:38;;;;;;;15.50;4.90;;;;;;;-145.13;100.00;63600.38;5140329;27;20190;-66
2022/03/31 02:22:06;;;;;;;11.75;5.72;;;;;;;-145.13;100.00;63600.38;5158149;27;20183;-66
2022/03/31 02:24:34;;;;;;;12.88;5.65;;;;;;;-145.13;100.00;63600.38;5158292;27;20185;-66
2022/03/31 02:27:01;;;;;;;12.10;5.70;;;;;;;-145.13;100.00;63600.38;5158329;27;20243;-66
2022/03/31 02:29:28;;;;;;;11.43;5.60;;;;;;;-145.13;100.00;63600.38;5157869;27;20206;-66
2022/03/31 02:31:55;;;;;;;15.55;5.57;;;;;;;-145.13;100.00;63600.38;5139976;27;20186;-66
2022/03/31 02:34:23;;;;;;;13.40;6.15;;;;;;;-145.13;100.00;63600.38;5158265;27;20183;-66
2022/03/31 02:36:50;;;;;;;14.85;6.30;;;;;;;-145.13;100.00;63600.38;5158101;27;20197;-66
2022/03/31 02:39:17;;;;;;;13.70;5.97;;;;;;;-145.13;100.00;63600.38;5139625;27;20218;-66
2022/03/31 02:41:44;;;;;;;12.57;5.78;;;;;;;-145.13;100.00;63600.38;5157659;27;20221;-66
2022/03/31 02:44:11;;;;;;;13.52;6.25;;;;;;;-145.13;100.00;63600.38;5157950;27;20188;-66
2022/03/31 02:46:38;;;;;;;15.13;6.40;;;;;;;-145.13;100.00;63600.38;5157944;27;20187;-66
2022/03/31 02:49:05;;;;;;;15.55;7.45;;;;;;;-145.13;100.00;63600.38;5157769;27;20244;-66
2022/03/31 02:51:33;;;;;;;17.23;12.02;;;;;;;-145.13;100.00;63600.38;5157774;27;20239;-66
2022/03/31 02:56:45;;;;;;;14.68;7.60;;;;;;;-145.13;100.00;63600.38;5157487;27;20171;-66
2022/03/31 02:59:12;;;;;;;13.48;6.53;;;;;;;-145.13;100.00;63600.38;5138601;27;20193;-66
2022/03/31 03:01:39;;;;;;;13.10;6.15;;;;;;;-145.13;100.00;63600.38;5157607;27;20197;-66
2022/03/31 03:04:08;;;;;;;10.25;5.28;;;;;;;-145.13;100.00;63600.38;5157599;27;20183;-66
2022/03/31 03:06:36;;;;;;;11.32;5.45;;;;;;;-145.13;100.00;63600.38;5157812;27;20285;-66
2022/03/31 03:09:03;;;;;;;13.90;5.68;;;;;;;-145.13;100.00;63600.38;5135652;27;20697;-66
2022/03/31 03:11:30;;;;;;;11.13;6.15;;;;;;;-145.13;100.00;63600.38;5135588;27;20298;-66
2022/03/31 03:13:57;;;;;;;10.98;5.65;;;;;;;-145.13;100.00;63600.38;5136782;27;20194;-66
2022/03/31 03:16:25;;;;;;;11.30;6.13;;;;;;;-145.13;100.00;63600.38;5136681;27;20183;-66
2022/03/31 03:18:52;;;;;;;12.15;6.57;;;;;;;-145.13;100.00;63600.38;5136718;27;20183;-66
2022/03/31 03:21:19;;;;;;;11.73;6.50;;;;;;;-145.13;100.00;63600.38;5136012;27;20202;-66
2022/03/31 03:23:48;;;;;;;14.82;7.65;;;;;;;-145.13;100.00;63600.38;5135565;27;20203;-67
2022/03/31 03:26:15;;;;;;;13.23;6.90;;;;;;;-145.13;100.00;63600.38;5118478;27;20225;-67
2022/03/31 03:28:42;;;;;;;13.52;7.93;;;;;;;-145.13;100.00;63600.38;5118609;27;20222;-67
2022/03/31 03:31:09;;;;;;;12.30;6.75;;;;;;;-145.13;100.00;63600.38;5118460;27;20203;-66
2022/03/31 03:33:36;;;;;;;12.52;6.50;;;;;;;-145.13;100.00;63600.38;5136598;27;20661;-66
2022/03/31 03:36:08;;;;;;;12.05;5.78;;;;;;;-145.13;100.00;63600.38;5118392;27;20195;-67
2022/03/31 03:38:35;;;;;;;12.75;4.85;;;;;;;-145.13;100.00;63600.38;5136016;27;20303;-68
2022/03/31 03:41:04;;;;;;;11.88;5.82;;;;;;;-145.13;100.00;63600.38;5136635;27;20260;-67
2022/03/31 03:43:31;;;;;;;10.10;5.93;;;;;;;-145.13;100.00;63600.38;5118055;28;20711;-67
2022/03/31 03:45:58;;;;;;;9.02;5.78;;;;;;;-145.13;100.00;63600.38;5136265;27;20183;-67
2022/03/31 03:48:25;;;;;;;10.55;5.78;;;;;;;-145.13;100.00;63600.38;5136285;28;20230;-67
2022/03/31 03:50:53;;;;;;;14.10;5.85;;;;;;;-145.13;100.00;63600.38;5118369;28;20191;-72
2022/03/31 03:53:20;;;;;;;9.88;5.68;;;;;;;-145.13;100.00;63600.38;5118293;28;20218;-67
2022/03/31 03:55:47;;;;;;;12.60;6.40;;;;;;;-145.13;100.00;63600.38;5135832;28;20190;-67
2022/03/31 03:58:16;;;;;;;11.38;6.10;;;;;;;-145.13;100.00;63600.38;5118195;28;20202;-67
2022/03/31 04:00:43;;;;;;;9.00;6.25;;;;;;;-145.13;100.00;63600.38;5135704;28;20183;-67
2022/03/31 04:03:10;;;;;;;10.20;7.13;;;;;;;-145.13;100.00;63600.38;5135162;28;20453;-67
2022/03/31 04:05:38;;;;;;;14.15;8.05;;;;;;;-145.13;100.00;63600.38;5136108;28;20179;-67
2022/03/31 04:08:05;;;;;;;13.15;9.70;;;;;;;-145.13;100.00;63600.38;5122587;27;20232;-67
2022/03/31 04:10:34;;;;;;;11.75;8.88;;;;;;;-145.13;100.00;63600.38;5142826;27;20224;-66
2022/03/31 04:13:01;;;;;;;13.18;8.35;;;;;;;-145.13;100.00;63600.38;5143207;27;20194;-66
2022/03/31 04:15:29;;;;;;;13.40;6.55;;;;;;;-145.13;100.00;63600.38;5143063;27;20258;-66
2022/03/31 04:17:57;;;;;;;15.10;9.32;;;;;;;-145.13;100.00;63600.38;5161006;27;20189;-67
2022/03/31 04:20:23;;;;;;;13.90;8.18;;;;;;;-145.13;100.00;63600.38;5160692;27;20175;-67
2022/03/31 04:22:50;;;;;;;11.50;7.55;;;;;;;-145.13;100.00;63600.38;5142881;27;20195;-67
2022/03/31 04:25:17;;;;;;;15.07;7.55;;;;;;;-145.13;100.00;63600.38;5160972;27;20546;-67
2022/03/31 04:27:44;;;;;;;12.93;7.95;;;;;;;-145.13;100.00;63600.38;5160738;27;20314;-67
2022/03/31 04:30:13;;;;;;;11.60;7.65;;;;;;;-145.13;100.00;63600.38;5160572;27;20221;-66
2022/03/31 04:32:43;;;;;;;14.73;8.15;;;;;;;-145.13;100.00;63600.38;5160405;27;20183;-66
2022/03/31 04:35:10;;;;;;;12.50;7.15;;;;;;;-145.13;100.00;63600.38;5142616;27;20233;-67
2022/03/31 04:37:38;;;;;;;12.30;7.82;;;;;;;-145.13;100.00;63600.38;5160483;27;20598;-67
2022/03/31 04:40:06;;;;;;;11.77;8.18;;;;;;;-145.13;100.00;63600.38;5142398;27;20224;-66
2022/03/31 04:42:33;;;;;;;14.50;7.93;;;;;;;-145.13;100.00;63600.38;5159889;27;20432;-66
2022/03/31 04:45:02;;;;;;;12.52;8.15;;;;;;;-145.13;100.00;63600.38;5159724;27;20417;-66
2022/03/31 04:47:29;;;;;;;14.67;8.30;;;;;;;-145.13;100.00;63600.38;5158793;27;20457;-67
2022/03/31 04:49:57;;;;;;;10.07;7.60;;;;;;;-145.13;100.00;63600.38;5160100;27;20229;-67
2022/03/31 04:52:24;;;;;;;13.48;6.30;;;;;;;-145.13;100.00;63600.38;5160489;27;20210;-67
2022/03/31 04:54:51;;;;;;;11.98;5.43;;;;;;;-145.13;100.00;63600.38;5142404;27;20266;-67
2022/03/31 04:57:20;;;;;;;12.02;4.38;;;;;;;-145.13;100.00;63600.38;5159804;27;20625;-67
2022/03/31 04:59:47;;;;;;;13.10;4.30;;;;;;;-145.13;100.00;63600.38;5159826;27;20235;-66
2022/03/31 05:02:14;;;;;;;12.52;4.75;;;;;;;-145.13;100.00;63600.38;5141872;27;20194;-66
2022/03/31 05:04:41;;;;;;;16.00;5.53;;;;;;;-145.13;100.00;63600.38;5141397;27;20229;-66
2022/03/31 05:07:09;;;;;;;12.35;5.03;;;;;;;-145.13;100.00;63600.38;5159476;27;20201;-67
2022/03/31 05:09:36;;;;;;;14.98;7.13;;;;;;;-145.13;100.00;63600.38;5137607;27;20088;-67
2022/03/31 05:12:05;;;;;;;17.45;6.93;;;;;;;-145.13;100.00;63600.38;5138902;27;20183;-69
2022/03/31 05:14:32;;;;;;;13.70;6.57;;;;;;;-145.13;100.00;63600.38;5138465;27;20203;-68
2022/03/31 05:16:59;;;;;;;17.80;8.90;;;;;;;-145.13;100.00;63600.38;5136666;27;20518;-68
2022/03/31 05:19:25;;;;;;;11.60;7.22;;;;;;;-145.13;100.00;63600.38;5138124;27;20222;-68
2022/03/31 05:21:52;;;;;;;12.32;6.28;;;;;;;-145.13;100.00;63600.38;5138111;27;20187;-68
2022/03/31 05:24:21;;;;;;;12.68;7.15;;;;;;;-145.13;100.00;63600.38;5137633;27;20209;-67
2022/03/31 05:26:48;;;;;;;17.58;7.72;;;;;;;-145.13;100.00;63600.38;5138767;27;20535;-67
2022/03/31 05:29:15;;;;;;;16.20;6.78;;;;;;;-145.13;100.00;63600.38;5138473;27;20206;-67
2022/03/31 05:31:42;;;;;;;16.17;6.93;;;;;;;-145.13;100.00;63600.38;5138433;27;20614;-67
2022/03/31 05:34:09;;;;;;;14.13;7.55;;;;;;;-145.13;100.00;63600.38;5138206;27;20230;-67
2022/03/31 05:36:35;;;;;;;16.33;7.32;;;;;;;-145.13;100.00;63600.38;5137900;27;20206;-67
2022/03/31 05:39:03;;;;;;;14.63;7.53;;;;;;;-145.13;100.00;63600.38;5137494;27;20210;-67
2022/03/31 05:41:31;;;;;;;14.23;6.63;;;;;;;-145.13;100.00;63600.38;5137950;27;20191;-67
2022/03/31 05:43:58;;;;;;;14.55;7.35;;;;;;;-145.13;100.00;63600.38;5137961;27;20261;-68
2022/03/31 05:46:26;;;;;;;17.80;10.52;;;;;;;-145.13;100.00;63600.38;5138728;27;20257;-67
2022/03/31 05:48:53;;;;;;;15.52;8.70;;;;;;;-145.13;100.00;63600.38;5138638;27;20175;-67
2022/03/31 05:51:20;;;;;;;18.38;9.02;;;;;;;-145.13;100.00;63600.38;5138809;27;20243;-67
2022/03/31 05:53:47;;;;;;;14.48;9.60;;;;;;;-145.13;100.00;63600.38;5138949;27;20223;-68
2022/03/31 05:56:14;;;;;;;13.35;8.43;;;;;;;-145.13;100.00;63600.38;5120380;27;20222;-68
2022/03/31 05:58:43;;;;;;;17.67;9.82;;;;;;;-145.13;100.00;63600.38;5138279;27;20199;-68
2022/03/31 06:01:09;;;;;;;13.60;9.02;;;;;;;-145.13;100.00;63600.38;5120418;27;20223;-67
2022/03/31 06:03:36;;;;;;;16.23;9.00;;;;;;;-145.13;100.00;63600.38;5120609;27;20202;-67
2022/03/31 06:06:03;;;;;;;17.05;8.80;;;;;;;-145.13;100.00;63600.38;5120201;27;20237;-67
2022/03/31 06:08:30;;;;;;;17.33;9.30;;;;;;;-145.13;100.00;63600.38;5138152;27;20262;-67
2022/03/31 06:10:57;;;;;;;15.90;9.43;;;;;;;-145.13;100.00;63600.38;5138195;27;20310;-68
2022/03/31 06:13:26;;;;;;;16.90;8.93;;;;;;;-145.13;100.00;63600.38;5120190;27;20647;-67
2022/03/31 06:15:54;;;;;;;17.50;8.85;;;;;;;-145.13;100.00;63600.38;5137819;27;20224;-67
2022/03/31 06:18:23;;;;;;;15.40;8.35;;;;;;;-145.13;100.00;63600.38;5138519;27;20184;-67
2022/03/31 06:20:49;;;;;;;17.77;9.13;;;;;;;-145.13;100.00;63600.38;5137944;27;20218;-67
2022/03/31 06:23:16;;;;;;;18.65;9.93;;;;;;;-145.13;100.00;63600.38;5138042;27;20183;-66
2022/03/31 06:25:44;;;;;;;22.77;12.07;;;;;;;-145.13;100.00;63600.38;5119916;27;20451;-67
2022/03/31 06:28:11;;;;;;;19.58;10.27;;;;;;;-145.13;100.00;63600.38;5137194;27;20506;-66
2022/03/31 06:30:38;;;;;;;20.10;10.32;;;;;;;-145.13;100.00;63600.38;5138477;27;20286;-66
2022/03/31 06:33:07;;;;;;;20.33;9.60;;;;;;;-145.13;100.00;63600.38;5118568;27;20226;-67
2022/03/31 06:35:34;;;;;;;18.10;6.68;;;;;;;-145.13;100.00;63600.38;5120122;27;20199;-66
2022/03/31 06:38:01;;;;;;;15.38;5.38;;;;;;;-145.13;100.00;63600.38;5137820;27;20221;-67
2022/03/31 06:40:31;;;;;;;17.95;6.07;;;;;;;-145.13;100.00;63600.38;5120162;27;20198;-66
2022/03/31 06:42:58;;;;;;;16.58;4.90;;;;;;;-145.13;100.00;63600.38;5137753;27;20180;-66
2022/03/31 06:45:25;;;;;;;15.27;6.25;;;;;;;-145.13;100.00;63600.38;5137974;27;20229;-66
2022/03/31 06:47:52;;;;;;;18.33;6.60;;;;;;;-145.13;100.00;63600.38;5137662;27;20195;-67
2022/03/31 06:50:21;;;;;;;21.30;6.70;;;;;;;-145.13;100.00;63600.38;5137427;27;20542;-67
2022/03/31 06:52:47;;;;;;;17.60;6.30;;;;;;;-145.13;100.00;63600.38;5120083;27;20226;-67
2022/03/31 06:55:14;;;;;;;20.92;6.70;;;;;;;-145.13;100.00;63600.38;5137440;27;20180;-67
2022/03/31 06:57:41;;;;;;;16.45;6.07;;;;;;;-145.13;100.00;63600.38;5119637;27;20195;-66
2022/03/31 07:00:09;;;;;;;16.25;5.65;;;;;;;-145.13;100.00;63600.38;5137244;27;20183;-66
2022/03/31 07:02:36;;;;;;;16.02;6.72;;;;;;;-145.13;100.00;63600.38;5119842;27;20230;-66
2022/03/31 07:05:03;;;;;;;20.00;6.63;;;;;;;-145.13;100.00;63600.38;5119719;27;20199;-66
2022/03/31 07:07:32;;;;;;;17.85;5.63;;;;;;;-145.13;100.00;63600.38;5137511;27;20517;-66
2022/03/31 07:10:00;;;;;;;20.67;6.63;;;;;;;-145.13;100.00;63600.38;5116417;28;20310;-67
2022/03/31 07:12:27;;;;;;;19.50;9.43;;;;;;;-145.13;100.00;63600.38;5116770;28;20195;-67
2022/03/31 07:14:54;;;;;;;19.35;9.25;;;;;;;-145.13;100.00;63600.38;5116690;28;20210;-66
2022/03/31 07:17:21;;;;;;;18.08;8.05;;;;;;;-145.13;100.00;63600.38;5117299;28;20596;-66
2022/03/31 07:19:48;;;;;;;20.63;8.10;;;;;;;-145.13;100.00;63600.38;5118411;28;20196;-66
2022/03/31 07:22:15;;;;;;;19.35;5.70;;;;;;;-145.13;100.00;63600.38;5117750;28;20206;-67
2022/03/31 07:24:43;;;;;;;17.70;6.63;;;;;;;-145.13;100.00;63600.38;5117022;28;20216;-67
2022/03/31 07:27:10;;;;;;;18.77;7.25;;;;;;;-145.13;100.00;63600.38;5117267;28;20187;-66
2022/03/31 07:29:37;;;;;;;16.50;5.70;;;;;;;-145.13;100.00;63600.38;5117242;28;20576;-66
2022/03/31 07:32:04;;;;;;;18.70;5.97;;;;;;;-145.13;100.00;63600.38;5117694;28;20192;-66
2022/03/31 07:34:31;;;;;;;18.55;6.85;;;;;;;-145.13;100.00;63600.38;5133296;27;20196;-66
2022/03/31 07:37:00;;;;;;;18.77;7.15;;;;;;;-145.13;100.00;63600.38;5116415;28;20574;-66
2022/03/31 07:39:27;;;;;;;22.77;9.30;;;;;;;-145.13;100.00;63600.38;5117935;28;20196;-66
2022/03/31 07:41:55;;;;;;;16.88;7.32;;;;;;;-145.13;100.00;63600.38;5117131;28;20187;-66
2022/03/31 07:44:22;;;;;;;16.98;6.35;;;;;;;-145.13;100.00;63600.38;5116523;28;20199;-67
2022/03/31 07:46:51;;;;;;;15.88;5.40;;;;;;;-145.13;100.00;63600.38;5116694;28;20212;-66
2022/03/31 07:49:18;;;;;;;17.67;6.47;;;;;;;-145.13;100.00;63600.38;5115437;28;20203;-66
2022/03/31 07:51:45;;;;;;;20.20;5.93;;;;;;;-145.13;100.00;63600.38;5114946;28;20196;-66
2022/03/31 07:54:12;;;;;;;17.48;5.55;;;;;;;-145.13;100.00;63600.38;5114747;28;20209;-66
2022/03/31 07:56:39;;;;;;;20.60;6.32;;;;;;;-145.13;100.00;63600.38;5116247;28;20176;-67
2022/03/31 07:59:07;;;;;;;17.60;6.55;;;;;;;-145.13;100.00;63600.38;5115020;28;20238;-66
2022/03/31 08:01:34;;;;;;;17.83;5.93;;;;;;;-145.13;100.00;63600.38;5114628;28;20191;-66
2022/03/31 08:04:03;;;;;;;20.17;9.45;;;;;;;-145.13;100.00;63600.38;5115521;28;20179;-68
2022/03/31 08:06:30;;;;;;;19.73;9.73;;;;;;;-145.13;100.00;63600.38;5116058;28;20237;-68
2022/03/31 08:08:57;;;;;;;16.73;6.30;;;;;;;-145.13;100.00;63600.38;5126528;28;20239;-66
2022/03/31 08:11:24;;;;;;;18.90;6.15;;;;;;;-145.13;100.00;63600.38;5135256;28;20287;-67
2022/03/31 08:13:51;;;;;;;11.82;5.70;;;;;;;-145.13;100.00;63600.38;5135350;28;20252;-67
2022/03/31 08:16:19;;;;;;;20.67;6.10;;;;;;;-145.13;100.00;63600.38;5135887;28;20248;-66
2022/03/31 08:18:47;;;;;;;17.33;6.28;;;;;;;-145.13;100.00;63600.38;5135248;28;20294;-66
2022/03/31 08:21:14;;;;;;;14.95;7.15;;;;;;;-145.13;100.00;63600.38;5136434;28;20187;-66
2022/03/31 08:23:41;;;;;;;16.60;6.75;;;;;;;-145.13;100.00;63600.38;5136244;28;20531;-66
2022/03/31 08:26:07;;;;;;;18.05;7.15;;;;;;;-145.13;100.00;63600.38;5136532;28;20194;-67
2022/03/31 08:28:36;;;;;;;17.10;5.50;;;;;;;-145.13;100.00;63600.38;5136544;28;20175;-67
2022/03/31 08:31:03;;;;;;;19.48;6.05;;;;;;;-145.13;100.00;63600.38;5135917;28;20199;-67
2022/03/31 08:33:31;;;;;;;16.33;5.50;;;;;;;-145.13;100.00;63600.38;5136438;28;20186;-67
2022/03/31 08:35:58;;;;;;;17.45;6.07;;;;;;;-145.13;100.00;63600.38;5136557;28;20210;-66
2022/03/31 08:38:25;;;;;;;17.58;5.93;;;;;;;-145.13;100.00;63600.38;5117873;28;20233;-67
2022/03/31 08:40:56;;;;;;;14.77;5.95;;;;;;;-145.13;100.00;63600.38;5135706;28;20218;-68
2022/03/31 08:43:26;;;;;;;15.15;6.15;;;;;;;-145.13;100.00;63600.38;5135659;28;20590;-67
2022/03/31 08:45:55;;;;;;;17.45;6.75;;;;;;;-145.13;100.00;63600.38;5118141;28;20195;-67
2022/03/31 08:48:23;;;;;;;16.17;7.20;;;;;;;-145.13;100.00;63600.38;5135205;28;20286;-66
2022/03/31 08:50:51;;;;;;;18.25;6.85;;;;;;;-145.13;100.00;63600.38;5136639;28;20199;-67
2022/03/31 08:53:18;;;;;;;17.55;6.65;;;;;;;-145.13;100.00;63600.38;5135287;28;20219;-67
2022/03/31 08:55:45;;;;;;;18.10;6.10;;;;;;;-145.13;100.00;63600.38;5136509;27;20202;-67
2022/03/31 08:58:11;;;;;;;17.23;5.82;;;;;;;-145.13;100.00;63600.38;5138999;27;20209;-67
2022/03/31 09:00:38;;;;;;;16.67;6.30;;;;;;;-145.13;100.00;63600.38;5138759;27;20187;-66
2022/03/31 09:03:07;;;;;;;20.27;9.82;;;;;;;-145.13;100.00;63600.38;5139322;27;20244;-66
2022/03/31 09:05:39;;;;;;;19.77;7.13;;;;;;;-145.13;100.00;63600.38;5139176;27;20195;-67
2022/03/31 09:08:09;;;;;;;15.13;5.65;;;;;;;-145.13;100.00;63600.38;5138851;27;20231;-67
2022/03/31 09:10:38;;;;;;;22.13;7.65;;;;;;;-145.13;100.00;63600.38;5139511;27;20556;-67
2022/03/31 09:13:06;;;;;;;19.55;6.95;;;;;;;-145.13;100.00;63600.38;5139214;27;20209;-67
2022/03/31 09:15:35;;;;;;;15.48;5.93;;;;;;;-145.13;100.00;63600.38;5121538;27;20199;-66
2022/03/31 09:18:02;;;;;;;15.48;5.82;;;;;;;-145.13;100.00;63600.38;5121534;27;20644;-66
2022/03/31 09:20:39;;;;;;;14.90;4.63;;;;;;;-145.13;100.00;63600.38;5139288;27;20610;-68
2022/03/31 09:23:08;;;;;;;18.42;5.78;;;;;;;-145.13;100.00;63600.38;5121576;27;20224;-67
2022/03/31 09:25:35;;;;;;;18.20;5.07;;;;;;;-145.13;100.00;63600.38;5138275;27;20215;-67
2022/03/31 09:28:12;;;;;;;13.40;4.10;;;;;;;-145.13;100.00;63600.38;5120949;27;20199;-67
2022/03/31 09:30:44;;;;;;;15.40;5.03;;;;;;;-145.13;100.00;63600.38;5121462;27;20249;-66
2022/03/31 09:33:11;;;;;;;17.67;9.00;;;;;;;-145.13;100.00;63600.38;5138359;27;20217;-67
2022/03/31 09:35:39;;;;;;;12.00;4.38;;;;;;;-145.13;100.00;63600.38;5138368;27;20540;-67
2022/03/31 09:38:13;;;;;;;15.05;5.20;;;;;;;-145.13;100.00;63600.38;5138183;27;20223;-66
2022/03/31 09:40:40;;;;;;;16.30;4.63;;;;;;;-145.13;100.00;63600.38;5138102;27;20668;-66
2022/03/31 09:43:07;;;;;;;11.90;4.70;;;;;;;-145.13;100.00;63600.38;5138224;27;20187;-67
2022/03/31 09:45:39;;;;;;;15.27;4.45;;;;;;;-145.13;100.00;63600.38;5138738;27;20198;-68
2022/03/31 09:48:08;;;;;;;19.77;5.17;;;;;;;-145.13;100.00;63600.38;5138162;27;20757;-68
2022/03/31 09:50:36;;;;;;;13.45;3.80;;;;;;;-145.13;100.00;63600.38;5138484;27;20239;-67
2022/03/31 09:53:04;;;;;;;15.93;4.60;;;;;;;-145.13;100.00;63600.38;5138319;27;20179;-67
2022/03/31 09:55:34;;;;;;;12.50;4.00;;;;;;;-145.13;100.00;63600.38;5137731;27;20256;-67
2022/03/31 09:58:02;;;;;;;13.27;4.93;;;;;;;-145.13;100.00;63600.38;5136214;27;20419;-67
2022/03/31 10:00:29;;;;;;;11.95;4.65;;;;;;;-145.13;100.00;63600.38;5138702;27;20183;-67
2022/03/31 10:02:59;;;;;;;12.90;4.90;;;;;;;-145.13;100.00;63600.38;5138066;27;20205;-67
2022/03/31 10:05:27;;;;;;;14.48;5.15;;;;;;;-145.13;100.00;63600.38;5120148;27;20209;-66
2022/03/31 10:07:54;;;;;;;15.00;5.57;;;;;;;-145.13;100.00;63600.38;5137686;27;20229;-66
2022/03/31 10:10:21;;;;;;;13.00;6.03;;;;;;;-145.13;100.00;63600.38;5138232;27;20198;-66
2022/03/31 10:12:55;;;;;;;15.07;4.88;;;;;;;-145.13;100.00;63600.38;5138085;27;20270;-67
2022/03/31 10:15:28;;;;;;;13.52;5.45;;;;;;;-145.13;100.00;63600.38;5120314;27;20191;-67
2022/03/31 10:17:55;;;;;;;15.05;5.72;;;;;;;-145.13;100.00;63600.38;5137766;27;20607;-67
2022/03/31 10:20:22;;;;;;;19.98;5.95;;;;;;;-145.13;100.00;63600.38;5138617;27;20191;-68
2022/03/31 10:25:42;;;;;;;17.70;5.97;;;;;;;-145.13;100.00;63600.38;5137736;27;20175;-68
2022/03/31 10:28:12;;;;;;;18.35;5.68;;;;;;;-145.13;100.00;63600.38;5120547;27;20263;-68
2022/03/31 10:30:39;;;;;;;16.42;5.32;;;;;;;-145.13;100.00;63600.38;5119729;27;20206;-68
2022/03/31 10:33:08;;;;;;;16.95;6.53;;;;;;;-145.13;100.00;63600.38;5118824;27;20411;-68
2022/03/31 10:35:36;;;;;;;21.20;6.47;;;;;;;-145.13;100.00;63600.38;5120340;27;20615;-68
2022/03/31 10:38:12;;;;;;;20.15;5.75;;;;;;;-145.13;100.00;63600.38;5138770;27;20176;-67
2022/03/31 10:40:42;;;;;;;17.60;6.30;;;;;;;-145.13;100.00;63600.38;5119765;27;20222;-68
2022/03/31 10:43:19;;;;;;;19.90;6.22;;;;;;;-145.13;100.00;63600.38;5137720;27;20226;-68
2022/03/31 10:45:47;;;;;;;18.08;7.18;;;;;;;-145.13;100.00;63600.38;5119870;27;20236;-68
2022/03/31 10:48:16;;;;;;;16.63;6.35;;;;;;;-145.13;100.00;63600.38;5119916;27;20297;-67
2022/03/31 10:50:44;;;;;;;16.73;5.68;;;;;;;-145.13;100.00;63600.38;5119532;27;20211;-65
2022/03/31 10:53:11;;;;;;;14.95;6.03;;;;;;;-145.13;100.00;63600.38;5119471;27;20633;-65
2022/03/31 10:55:40;;;;;;;21.88;7.22;;;;;;;-145.13;100.00;63600.38;5137544;27;20191;-66
2022/03/31 10:58:07;;;;;;;18.10;5.57;;;;;;;-145.13;100.00;63600.38;5137407;27;20183;-66
2022/03/31 11:00:36;;;;;;;15.70;5.85;;;;;;;-145.13;100.00;63600.38;5119708;27;20212;-66
2022/03/31 11:03:03;;;;;;;22.40;6.43;;;;;;;-145.13;100.00;63600.38;5119213;27;20194;-64
2022/03/31 11:05:32;;;;;;;20.70;6.32;;;;;;;-145.13;100.00;63600.38;5119294;27;20199;-66
2022/03/31 11:08:03;;;;;;;18.80;5.68;;;;;;;-145.13;100.00;63600.38;5118858;27;20226;-66
2022/03/31 11:10:41;;;;;;;20.42;5.43;;;;;;;-145.13;100.00;63600.38;5137003;27;20217;-66
2022/03/31 11:13:09;;;;;;;20.67;6.47;;;;;;;-145.13;100.00;63600.38;5119063;27;20191;-66
2022/03/31 11:15:37;;;;;;;20.67;5.95;;;;;;;-145.13;100.00;63600.38;5136933;27;20599;-66
2022/03/31 11:18:04;;;;;;;15.52;5.07;;;;;;;-145.13;100.00;63600.38;5136822;27;20211;-65
2022/03/31 11:20:31;;;;;;;14.07;5.35;;;;;;;-145.13;100.00;63600.38;5119680;27;20218;-66
2022/03/31 11:23:00;;;;;;;17.30;5.95;;;;;;;-145.13;100.00;63600.38;5119160;27;20199;-67